Time;durP1;ratioP1;P1;durP2;ratioP2;P2;SDS_P1;SDS_P2;PMS_P1;PMS_P2;Temp;Humidity;BMP_temperature;BMP_pressure;BME280_temperature;BME280_humidity;BME280_pressure;Samples;Min_cycle;Max_cycle;Signal;HPM_P1;HPM_P2
2022/05/02 00:00:11;;;;;;;13.25;8.80;;;5.40;99.90;;;;;;5046719;28;20037;-72
2022/05/02 00:02:38;;;;;;;16.40;9.52;;;5.40;99.90;;;;;;5081759;28;20041;-72
2022/05/02 00:05:05;;;;;;;17.58;9.10;;;5.40;99.90;;;;;;5048752;28;20492;-71
2022/05/02 00:07:30;;;;;;;14.75;9.60;;;5.40;99.90;;;;;;5040048;28;20045;-71
2022/05/02 00:09:56;;;;;;;14.75;8.90;;;5.40;99.90;;;;;;5040386;28;20044;-71
2022/05/02 00:12:22;;;;;;;13.65;9.07;;;5.40;99.90;;;;;;5034281;28;20040;-71
2022/05/02 00:14:47;;;;;;;15.65;9.15;;;5.40;99.90;;;;;;5050540;28;20032;-71
2022/05/02 00:17:13;;;;;;;15.63;9.13;;;5.50;99.90;;;;;;5050169;28;20044;-71
2022/05/02 00:19:38;;;;;;;14.55;8.57;;;5.40;99.90;;;;;;5049409;28;20052;-71
2022/05/02 00:22:04;;;;;;;14.00;8.85;;;5.40;99.90;;;;;;5051667;28;20041;-71
2022/05/02 00:24:30;;;;;;;15.18;8.93;;;5.40;99.90;;;;;;5050992;28;20045;-71
2022/05/02 00:26:56;;;;;;;18.27;9.68;;;5.40;99.90;;;;;;5049131;28;20406;-71
2022/05/02 00:29:22;;;;;;;14.90;8.40;;;5.40;99.90;;;;;;5049584;28;20494;-71
2022/05/02 00:31:47;;;;;;;15.85;8.10;;;5.30;99.90;;;;;;5050563;28;20045;-71
2022/05/02 00:34:13;;;;;;;10.90;7.28;;;5.30;99.90;;;;;;5049761;28;20119;-71
2022/05/02 00:36:39;;;;;;;11.57;7.57;;;5.20;99.90;;;;;;5050601;28;20040;-71
2022/05/02 00:39:04;;;;;;;11.02;7.60;;;5.10;99.90;;;;;;5048584;28;20037;-71
2022/05/02 00:41:30;;;;;;;11.77;7.28;;;4.90;99.90;;;;;;5050468;28;20090;-71
2022/05/02 00:43:55;;;;;;;13.02;7.90;;;4.80;99.90;;;;;;5039077;28;20092;-71
2022/05/02 00:46:23;;;;;;;13.00;8.13;;;4.60;99.90;;;;;;5030111;28;20072;-71
2022/05/02 00:48:49;;;;;;;12.02;8.13;;;4.60;99.90;;;;;;5049672;28;20044;-71
2022/05/02 00:51:16;;;;;;;12.57;8.13;;;4.50;99.90;;;;;;5049363;28;20044;-71
2022/05/02 00:53:44;;;;;;;10.30;6.65;;;4.40;99.90;;;;;;5048595;28;20087;-71
2022/05/02 00:56:10;;;;;;;11.32;6.72;;;4.40;99.90;;;;;;5046011;28;20073;-71
2022/05/02 00:58:36;;;;;;;11.48;6.30;;;4.30;99.90;;;;;;5028413;28;20073;-71
2022/05/02 01:01:04;;;;;;;10.50;6.35;;;4.30;99.90;;;;;;5029630;28;20132;-71
2022/05/02 01:03:30;;;;;;;14.90;7.40;;;4.30;99.90;;;;;;5029463;28;20087;-71
2022/05/02 01:08:40;;;;;;;12.82;8.07;;;4.30;99.90;;;;;;5042019;28;20103;-71
2022/05/02 01:11:06;;;;;;;10.18;5.53;;;4.40;99.90;;;;;;5046653;28;20467;-71
2022/05/02 01:13:41;;;;;;;10.55;6.50;;;4.40;99.90;;;;;;5064699;28;20115;-71
2022/05/02 01:16:16;;;;;;;9.07;5.50;;;4.30;99.90;;;;;;5047485;28;20128;-71
2022/05/02 01:18:43;;;;;;;10.27;6.47;;;4.20;99.90;;;;;;5031166;28;20072;-71
2022/05/02 01:21:14;;;;;;;7.75;5.40;;;4.10;99.90;;;;;;5045340;28;20041;-71
2022/05/02 01:23:40;;;;;;;9.52;6.22;;;4.00;99.90;;;;;;5046081;28;20040;-71
2022/05/02 01:26:06;;;;;;;12.75;7.05;;;3.90;99.90;;;;;;5059833;28;20064;-71
2022/05/02 01:28:32;;;;;;;12.30;7.95;;;3.70;99.90;;;;;;5028186;28;20037;-71
2022/05/02 01:30:58;;;;;;;11.98;7.78;;;3.60;99.90;;;;;;5046452;28;20040;-71
2022/05/02 01:33:23;;;;;;;13.93;8.77;;;3.60;99.90;;;;;;5044756;28;20037;-71
2022/05/02 01:35:49;;;;;;;98.30;10.98;;;3.60;99.90;;;;;;5048860;28;20144;-71
2022/05/02 01:38:14;;;;;;;17.35;8.75;;;3.50;99.90;;;;;;5048296;28;20045;-72
2022/05/02 01:40:40;;;;;;;18.05;8.73;;;3.60;99.90;;;;;;5048791;28;20037;-71
2022/05/02 01:43:05;;;;;;;15.07;8.40;;;3.60;99.90;;;;;;5042831;28;20045;-71
2022/05/02 01:45:31;;;;;;;16.60;8.00;;;3.50;99.90;;;;;;5044319;28;20456;-71
2022/05/02 01:47:56;;;;;;;12.82;8.02;;;3.50;99.90;;;;;;5049521;28;20132;-71
2022/05/02 01:50:22;;;;;;;14.70;8.68;;;3.50;99.90;;;;;;5048159;28;20072;-72
2022/05/02 01:52:48;;;;;;;17.45;10.00;;;3.50;99.90;;;;;;5048916;28;20037;-72
2022/05/02 01:55:13;;;;;;;15.40;8.70;;;3.50;99.90;;;;;;5063481;28;20040;-71
2022/05/02 01:57:39;;;;;;;13.98;8.02;;;3.40;99.90;;;;;;5063165;28;20040;-71
2022/05/02 02:00:05;;;;;;;14.10;8.23;;;3.40;99.90;;;;;;5047455;28;20028;-71
2022/05/02 02:02:31;;;;;;;12.75;7.65;;;3.40;99.90;;;;;;5045658;28;20503;-71
2022/05/02 02:07:40;;;;;;;16.55;9.52;;;3.30;99.90;;;;;;5038358;28;20140;-71
2022/05/02 02:10:07;;;;;;;14.63;8.93;;;3.30;99.90;;;;;;5028973;28;20519;-71
2022/05/02 02:12:32;;;;;;;16.10;9.50;;;3.30;99.90;;;;;;5081618;28;20079;-71
2022/05/02 02:14:58;;;;;;;17.80;10.15;;;3.40;99.90;;;;;;5046787;28;20460;-72
2022/05/02 02:17:23;;;;;;;15.65;8.80;;;3.40;99.90;;;;;;5030516;28;20032;-72
2022/05/02 02:19:49;;;;;;;17.23;9.73;;;3.40;99.90;;;;;;5029746;28;20561;-72
2022/05/02 02:22:17;;;;;;;16.48;10.07;;;3.40;99.90;;;;;;5045192;28;20045;-72
2022/05/02 02:24:47;;;;;;;18.52;9.60;;;3.40;99.90;;;;;;5029485;28;20479;-72
2022/05/02 02:27:13;;;;;;;16.38;10.15;;;3.40;99.90;;;;;;5073312;28;20464;-72
2022/05/02 02:29:38;;;;;;;12.60;6.13;;;3.40;99.90;;;;;;5028960;28;20132;-72
2022/05/02 02:32:05;;;;;;;16.10;8.10;;;3.30;99.90;;;;;;5028783;28;20044;-71
2022/05/02 02:34:31;;;;;;;15.52;8.77;;;3.30;99.90;;;;;;5047367;28;20303;-72
2022/05/02 02:36:57;;;;;;;15.35;9.13;;;3.30;99.90;;;;;;5046759;28;20041;-72
2022/05/02 02:39:22;;;;;;;16.10;9.07;;;3.20;99.90;;;;;;5046809;28;20492;-72
2022/05/02 02:41:48;;;;;;;20.42;10.50;;;3.30;99.90;;;;;;5046487;28;20033;-72
2022/05/02 02:44:13;;;;;;;17.45;10.25;;;3.20;99.90;;;;;;5046353;28;20044;-72
2022/05/02 02:46:39;;;;;;;14.60;8.15;;;3.20;99.90;;;;;;5049508;28;20376;-72
2022/05/02 02:49:04;;;;;;;17.73;9.60;;;3.20;99.90;;;;;;5034329;28;20511;-72
2022/05/02 02:51:30;;;;;;;20.15;10.52;;;3.20;99.90;;;;;;5050278;28;20373;-72
2022/05/02 02:53:55;;;;;;;22.02;10.82;;;3.20;99.90;;;;;;5050834;28;20094;-72
2022/05/02 02:56:22;;;;;;;17.67;10.43;;;3.10;99.90;;;;;;5051275;28;20079;-72
2022/05/02 02:58:47;;;;;;;18.13;9.95;;;3.10;99.90;;;;;;5050706;28;20056;-72
2022/05/02 03:01:13;;;;;;;17.13;9.57;;;3.10;99.90;;;;;;5050125;28;20063;-72
2022/05/02 03:03:39;;;;;;;13.20;8.02;;;3.10;99.90;;;;;;5049432;28;20040;-72
2022/05/02 03:06:05;;;;;;;17.13;9.80;;;3.10;99.90;;;;;;5062795;28;20534;-72
2022/05/02 03:08:44;;;;;;;19.02;11.20;;;3.00;99.90;;;;;;5067591;28;20483;-72
2022/05/02 03:11:10;;;;;;;21.63;11.15;;;3.00;99.90;;;;;;5050790;28;20029;-72
2022/05/02 03:13:36;;;;;;;19.02;10.20;;;3.00;99.90;;;;;;5033666;28;20045;-72
2022/05/02 03:16:02;;;;;;;16.20;9.15;;;2.90;99.90;;;;;;5050644;28;20087;-72
2022/05/02 03:18:29;;;;;;;16.75;9.73;;;2.90;99.90;;;;;;5045099;28;20118;-72
2022/05/02 03:20:54;;;;;;;15.23;8.45;;;2.90;99.90;;;;;;5084085;28;20147;-72
2022/05/02 03:23:21;;;;;;;14.40;8.70;;;2.90;99.90;;;;;;5066471;28;20123;-72
2022/05/02 03:25:47;;;;;;;14.75;7.97;;;2.90;99.90;;;;;;5050509;28;20163;-72
2022/05/02 03:28:12;;;;;;;14.50;8.38;;;2.80;99.90;;;;;;5083057;28;20112;-72
2022/05/02 03:30:38;;;;;;;17.15;9.63;;;2.80;99.90;;;;;;5041479;28;20037;-72
2022/05/02 03:33:03;;;;;;;14.65;9.25;;;2.80;99.90;;;;;;5050728;28;20507;-72
2022/05/02 03:35:30;;;;;;;17.67;10.25;;;2.90;99.90;;;;;;5048787;28;20033;-72
2022/05/02 03:37:56;;;;;;;18.98;10.20;;;2.80;99.90;;;;;;5050754;28;20602;-72
2022/05/02 03:40:21;;;;;;;18.83;10.10;;;2.80;99.90;;;;;;5044971;28;20053;-72
2022/05/02 03:42:47;;;;;;;15.02;9.63;;;2.90;99.90;;;;;;5051055;28;20056;-72
2022/05/02 03:45:13;;;;;;;16.10;10.00;;;2.80;99.90;;;;;;5066767;28;20079;-72
2022/05/02 03:47:38;;;;;;;17.10;9.80;;;2.80;99.90;;;;;;5050136;28;20045;-72
2022/05/02 03:50:04;;;;;;;18.48;10.23;;;2.80;99.90;;;;;;5048070;28;20041;-72
2022/05/02 03:52:30;;;;;;;16.70;9.88;;;2.80;99.90;;;;;;5050015;28;20041;-72
2022/05/02 03:54:56;;;;;;;18.48;9.85;;;2.70;99.90;;;;;;5067305;28;20131;-72
2022/05/02 03:57:21;;;;;;;17.70;9.75;;;2.70;99.90;;;;;;5033519;28;20033;-72
2022/05/02 03:59:47;;;;;;;16.25;9.85;;;2.70;99.90;;;;;;5065997;28;20032;-72
2022/05/02 04:02:13;;;;;;;15.07;9.68;;;2.70;99.90;;;;;;5049223;28;20127;-72
2022/05/02 04:04:39;;;;;;;15.90;9.57;;;2.70;99.90;;;;;;5050119;28;20318;-72
2022/05/02 04:07:05;;;;;;;14.82;9.32;;;2.70;99.90;;;;;;5045878;28;20071;-72
2022/05/02 04:09:30;;;;;;;15.43;9.32;;;2.70;99.90;;;;;;5047699;28;20048;-72
2022/05/02 04:11:56;;;;;;;153.52;14.45;;;2.70;99.90;;;;;;5065835;28;20036;-72
2022/05/02 04:14:22;;;;;;;726.78;37.55;;;2.70;99.90;;;;;;5050693;28;20037;-72
2022/05/02 04:16:49;;;;;;;15.27;8.88;;;2.60;99.90;;;;;;5049849;28;20058;-72
2022/05/02 04:19:16;;;;;;;13.10;8.05;;;2.60;99.90;;;;;;5047806;28;20433;-72
2022/05/02 04:21:41;;;;;;;14.20;8.48;;;2.60;99.90;;;;;;5048696;28;20071;-72
2022/05/02 04:24:07;;;;;;;13.82;8.73;;;2.50;99.90;;;;;;5047892;28;20037;-72
2022/05/02 04:26:33;;;;;;;12.30;7.60;;;2.50;99.90;;;;;;5057290;28;20037;-72
2022/05/02 04:28:59;;;;;;;15.32;9.20;;;2.60;99.90;;;;;;5047940;28;20041;-72
2022/05/02 04:31:25;;;;;;;15.20;8.77;;;2.60;99.90;;;;;;5049768;28;20140;-72
2022/05/02 04:33:50;;;;;;;14.68;8.73;;;2.60;99.90;;;;;;5046249;28;20033;-72
2022/05/02 04:36:16;;;;;;;17.67;9.95;;;2.60;99.90;;;;;;5044569;28;20591;-73
2022/05/02 04:38:41;;;;;;;17.77;9.75;;;2.60;99.90;;;;;;5049286;28;20040;-73
2022/05/02 04:41:07;;;;;;;20.13;11.38;;;2.60;99.90;;;;;;5049796;28;20137;-73
2022/05/02 04:43:33;;;;;;;21.30;11.43;;;2.60;99.90;;;;;;5047410;28;20048;-73
2022/05/02 04:45:58;;;;;;;22.58;12.57;;;2.70;99.90;;;;;;5049649;28;20040;-73
2022/05/02 04:48:24;;;;;;;24.13;11.98;;;2.70;99.90;;;;;;5049074;28;20074;-72
2022/05/02 04:50:49;;;;;;;25.98;11.35;;;2.70;99.90;;;;;;5048643;28;20144;-72
2022/05/02 04:53:15;;;;;;;21.65;11.52;;;2.70;99.90;;;;;;5045063;28;20083;-73
2022/05/02 04:55:40;;;;;;;23.00;11.10;;;2.80;99.90;;;;;;5047761;28;20033;-72
2022/05/02 04:58:06;;;;;;;31.45;12.18;;;2.80;99.90;;;;;;5049553;28;20097;-72
2022/05/02 05:00:32;;;;;;;22.77;11.35;;;2.90;99.90;;;;;;5048607;28;20143;-72
2022/05/02 05:02:57;;;;;;;22.95;12.10;;;2.90;99.90;;;;;;5047885;28;20045;-72
2022/05/02 05:05:23;;;;;;;22.33;11.52;;;3.00;99.90;;;;;;5049017;28;20044;-72
2022/05/02 05:07:49;;;;;;;19.27;10.98;;;3.00;99.90;;;;;;5054851;28;20097;-73
2022/05/02 05:10:14;;;;;;;23.80;11.50;;;3.10;99.90;;;;;;5049889;28;20040;-72
2022/05/02 05:13:07;;;;;;;23.63;12.07;;;3.20;99.90;;;;;;5050292;28;20041;-72
2022/05/02 05:18:45;;;;;;;19.90;10.48;;;3.40;99.90;;;;;;5045799;28;20048;-72
2022/05/02 05:21:32;;;;;;;;;;;3.50;99.90;;;;;;5048343;28;20488;-73
2022/05/02 05:24:13;;;;;;;22.45;12.07;;;3.50;99.90;;;;;;5039830;28;19931;-73
2022/05/02 05:26:51;;;;;;;26.70;13.00;;;3.60;99.90;;;;;;5048006;28;20044;-73
2022/05/02 05:29:34;;;;;;;24.70;12.63;;;3.80;99.90;;;;;;5048441;28;20547;-72
2022/05/02 05:32:18;;;;;;;25.45;13.32;;;3.80;99.90;;;;;;5049141;28;20056;-72
2022/05/02 05:35:07;;;;;;;28.05;14.18;;;3.90;99.90;;;;;;5049320;28;20052;-72
2022/05/02 05:38:06;;;;;;;24.75;14.00;;;4.10;99.90;;;;;;5049404;28;20103;-72
2022/05/02 05:40:42;;;;;;;27.30;14.85;;;4.20;99.90;;;;;;5030219;28;20084;-72
2022/05/02 05:43:59;;;;;;;27.98;14.20;;;4.30;99.90;;;;;;5048272;28;20045;-72
2022/05/02 05:46:52;;;;;;;32.30;15.18;;;4.50;99.90;;;;;;5046635;28;20083;-72
2022/05/02 05:49:20;;;;;;;31.33;15.23;;;4.70;99.90;;;;;;5046663;28;20036;-72
2022/05/02 05:52:02;;;;;;;29.75;15.15;;;4.80;99.90;;;;;;5046633;28;20040;-72
2022/05/02 05:54:40;;;;;;;35.58;16.42;;;5.00;99.90;;;;;;5048158;28;20503;-72
2022/05/02 05:57:28;;;;;;;34.70;16.40;;;5.20;99.90;;;;;;5046550;28;20042;-72
2022/05/02 06:00:04;;;;;;;35.17;17.15;;;5.30;99.90;;;;;;5040365;28;20132;-72
2022/05/02 06:02:42;;;;;;;31.10;15.52;;;5.50;99.90;;;;;;5048367;28;20083;-72
2022/05/02 06:05:08;;;;;;;32.80;17.63;;;5.70;99.90;;;;;;5048659;28;20044;-72
2022/05/02 06:07:35;;;;;;;37.50;18.92;;;5.90;99.90;;;;;;5046928;28;20037;-72
2022/05/02 06:10:02;;;;;;;39.28;17.80;;;6.00;99.90;;;;;;5047917;28;20103;-72
2022/05/02 06:12:30;;;;;;;37.00;18.80;;;6.20;99.90;;;;;;5048848;28;20047;-72
2022/05/02 06:20:31;;;;;;;38.47;18.25;;;6.80;99.90;;;;;;5047510;28;20190;-71
2022/05/02 06:22:59;;;;;;;37.42;18.27;;;7.00;99.90;;;;;;5049447;28;20079;-72
2022/05/02 06:25:29;;;;;;;42.03;19.48;;;7.20;99.90;;;;;;5068523;28;20049;-72
2022/05/02 06:27:56;;;;;;;42.40;18.33;;;7.40;99.90;;;;;;5053432;28;20052;-71
2022/05/02 06:30:23;;;;;;;39.22;20.30;;;7.50;99.90;;;;;;5038838;28;20038;-71
2022/05/02 06:32:51;;;;;;;38.63;20.10;;;7.70;99.90;;;;;;5028193;28;20582;-71
2022/05/02 06:35:17;;;;;;;40.22;19.15;;;7.80;99.90;;;;;;5035567;28;20060;-71
2022/05/02 06:38:03;;;;;;;37.35;19.25;;;8.00;99.90;;;;;;5046725;28;20399;-71
2022/05/02 06:40:51;;;;;;;36.97;19.60;;;8.10;99.90;;;;;;5057955;28;20045;-71
2022/05/02 06:43:50;;;;;;;36.63;19.25;;;8.30;99.90;;;;;;5039868;28;20460;-71
2022/05/02 06:46:23;;;;;;;36.53;18.63;;;8.50;99.90;;;;;;5040806;28;20455;-72
2022/05/02 06:48:53;;;;;;;33.55;19.15;;;8.70;99.90;;;;;;5025934;28;20041;-72
2022/05/02 06:51:23;;;;;;;39.40;20.10;;;8.80;99.90;;;;;;5042787;28;20246;-72
2022/05/02 06:54:11;;;;;;;40.55;20.20;;;9.00;99.90;;;;;;5043357;28;20037;-71
2022/05/02 06:56:39;;;;;;;45.40;20.20;;;9.10;99.90;;;;;;5044209;28;20584;-72
2022/05/02 06:59:34;;;;;;;39.30;19.50;;;9.20;99.90;;;;;;5041107;28;20065;-72
2022/05/02 07:02:34;;;;;;;36.75;18.58;;;9.40;99.90;;;;;;5024189;28;20148;-72
2022/05/02 07:05:05;;;;;;;37.22;19.52;;;9.60;99.90;;;;;;5043091;28;20044;-72
2022/05/02 07:07:51;;;;;;;37.33;20.60;;;9.70;99.90;;;;;;5042857;28;20511;-73
2022/05/02 07:10:22;;;;;;;41.05;20.52;;;9.90;99.90;;;;;;5042482;28;20044;-72
2022/05/02 07:13:16;;;;;;;39.50;18.93;;;10.00;99.90;;;;;;5028734;28;20543;-72
2022/05/02 07:15:52;;;;;;;41.85;19.85;;;10.20;99.90;;;;;;5046285;28;20037;-73
2022/05/02 07:18:37;;;;;;;37.60;19.83;;;10.40;99.90;;;;;;5028018;28;20037;-72
2022/05/02 07:21:17;;;;;;;36.20;19.48;;;10.50;99.90;;;;;;5028280;28;20044;-72
2022/05/02 07:24:15;;;;;;;37.03;18.73;;;10.60;99.90;;;;;;5051361;28;20488;-73
2022/05/02 07:26:43;;;;;;;42.38;21.15;;;10.80;99.90;;;;;;5045165;28;20112;-73
2022/05/02 07:29:11;;;;;;;36.58;19.58;;;10.90;99.90;;;;;;5047820;28;20376;-73
2022/05/02 07:31:39;;;;;;;40.90;19.58;;;11.00;99.90;;;;;;5053934;28;20033;-73
2022/05/02 07:34:06;;;;;;;35.58;17.80;;;11.10;99.90;;;;;;5051653;28;20029;-72
2022/05/02 07:36:33;;;;;;;34.13;18.20;;;11.20;99.90;;;;;;5047826;28;20041;-73
2022/05/02 07:39:03;;;;;;;35.20;17.83;;;11.30;99.90;;;;;;5047571;28;20040;-73
2022/05/02 07:41:29;;;;;;;32.13;17.88;;;11.40;99.90;;;;;;5047924;28;20108;-73
2022/05/02 07:44:06;;;;;;;33.20;18.00;;;11.50;99.90;;;;;;5047392;28;20139;-72
2022/05/02 07:46:36;;;;;;;31.92;17.52;;;11.60;99.90;;;;;;5044923;28;20037;-72
2022/05/02 07:49:04;;;;;;;29.20;17.27;;;11.60;99.90;;;;;;5045442;28;20514;-72
2022/05/02 07:51:31;;;;;;;32.92;18.05;;;11.80;99.90;;;;;;5047413;28;20306;-72
2022/05/02 07:53:59;;;;;;;29.42;17.52;;;11.90;99.90;;;;;;5046638;28;20049;-71
2022/05/02 07:56:27;;;;;;;32.17;18.75;;;12.00;99.90;;;;;;5045074;28;20780;-72
2022/05/02 07:58:54;;;;;;;30.60;17.30;;;12.10;99.90;;;;;;5046721;28;20116;-72
2022/05/02 08:01:24;;;;;;;30.05;17.85;;;12.20;99.90;;;;;;5044601;28;20131;-74
2022/05/02 08:03:51;;;;;;;29.75;17.75;;;12.30;99.90;;;;;;5041135;28;20287;-72
2022/05/02 08:06:25;;;;;;;29.83;17.73;;;12.40;99.90;;;;;;5024604;28;20044;-72
2022/05/02 08:09:43;;;;;;;29.02;16.38;;;12.60;99.90;;;;;;5041446;28;20044;-73
2022/05/02 08:12:28;;;;;;;26.77;13.27;;;12.70;99.90;;;;;;5065171;28;20069;-74
2022/05/02 08:15:08;;;;;;;26.23;14.82;;;12.80;99.90;;;;;;5039905;28;20106;-75
2022/05/02 08:17:40;;;;;;;21.63;13.18;;;12.90;99.90;;;;;;5041259;28;20072;-75
2022/05/02 08:20:31;;;;;;;24.17;13.38;;;12.80;99.90;;;;;;5041040;28;20080;-74
2022/05/02 08:29:29;;;;;;;23.73;12.73;;;13.20;99.90;;;;;;5048439;28;20044;-73
2022/05/02 08:32:10;;;;;;;23.10;13.82;;;13.30;99.90;;;;;;5049240;28;20044;-74
2022/05/02 08:34:36;;;;;;;23.83;13.85;;;13.40;99.90;;;;;;5049379;28;20033;-75
2022/05/02 08:37:37;;;;;;;25.65;13.57;;;13.40;99.90;;;;;;5031002;28;20483;-74
2022/05/02 08:40:41;;;;;;;22.15;12.68;;;13.50;99.90;;;;;;5045343;28;20045;-73
2022/05/02 08:43:39;;;;;;;22.73;14.05;;;13.70;99.90;;;;;;5050219;28;20053;-73
2022/05/02 08:46:27;;;;;;;22.15;11.73;;;13.80;99.90;;;;;;5046117;28;20045;-75
2022/05/02 08:49:37;;;;;;;22.52;12.95;;;13.80;99.90;;;;;;5048893;28;20453;-76
2022/05/02 08:52:03;;;;;;;24.67;14.35;;;13.90;99.90;;;;;;5043774;28;20040;-75
2022/05/02 08:54:50;;;;;;;22.35;11.95;;;13.90;99.90;;;;;;5042277;28;20043;-75
2022/05/02 08:57:49;;;;;;;26.20;14.00;;;14.00;99.90;;;;;;5051418;28;20376;-74
2022/05/02 09:00:26;;;;;;;20.98;11.88;;;14.00;99.90;;;;;;5049092;28;20043;-76
2022/05/02 09:03:19;;;;;;;22.17;12.85;;;14.10;99.90;;;;;;5049673;28;20399;-76
2022/05/02 09:06:14;;;;;;;27.08;13.20;;;14.10;99.90;;;;;;5050272;28;20076;-76
2022/05/02 09:09:16;;;;;;;23.20;12.10;;;14.20;99.90;;;;;;5047889;28;20120;-75
2022/05/02 09:12:10;;;;;;;22.02;12.80;;;14.10;99.90;;;;;;5049046;28;20041;-75
2022/05/02 09:14:54;;;;;;;24.45;13.27;;;14.10;99.90;;;;;;5052212;28;20068;-74
2022/05/02 09:17:44;;;;;;;25.70;13.77;;;14.10;99.90;;;;;;5048384;28;20037;-74
2022/05/02 09:20:24;;;;;;;21.38;12.23;;;14.20;99.90;;;;;;5076819;28;20036;-77
2022/05/02 09:23:02;;;;;;;23.13;13.90;;;14.20;99.90;;;;;;5075654;28;20036;-76
2022/05/02 09:25:46;;;;;;;24.50;14.27;;;14.30;99.90;;;;;;5051067;28;20043;-75
2022/05/02 09:28:19;;;;;;;21.10;12.40;;;14.40;99.90;;;;;;5044175;28;20098;-75
2022/05/02 09:31:00;;;;;;;25.75;13.32;;;14.60;99.90;;;;;;5047643;28;20447;-75
2022/05/02 09:33:40;;;;;;;22.00;13.68;;;14.70;99.90;;;;;;5054706;28;20479;-74
2022/05/02 09:36:30;;;;;;;20.65;13.10;;;14.70;99.90;;;;;;5048421;28;20041;-74
2022/05/02 09:39:13;;;;;;;23.83;13.40;;;14.50;99.90;;;;;;5046338;28;20084;-75
2022/05/02 09:42:04;;;;;;;19.77;13.18;;;14.40;99.90;;;;;;5047581;28;20044;-73
2022/05/02 09:51:58;;;;;;;21.33;12.88;;;14.80;99.90;;;;;;5044640;28;20522;-73
2022/05/02 09:57:22;;;;;;;20.40;12.02;;;14.90;99.90;;;;;;5041632;28;20052;-72
2022/05/02 10:01:06;;;;;;;24.23;13.25;;;15.00;99.90;;;;;;5047845;28;20037;-72
2022/05/02 10:02:46;;;;;;;21.45;12.68;;;15.00;99.90;;;;;;5044377;28;20094;-72
2022/05/02 10:05:21;;;;;;;19.10;12.10;;;15.20;99.90;;;;;;5047636;28;20040;-75
2022/05/02 10:08:24;;;;;;;19.83;11.93;;;15.30;99.90;;;;;;5048023;28;20099;-72
2022/05/02 10:11:04;;;;;;;17.27;11.77;;;15.50;99.90;;;;;;5047449;28;20044;-71
2022/05/02 10:13:53;;;;;;;22.90;12.27;;;15.60;99.90;;;;;;5056637;28;20484;-76
2022/05/02 10:16:50;;;;;;;18.67;11.90;;;15.70;99.90;;;;;;5036814;28;20388;-74
2022/05/02 10:20:00;;;;;;;16.67;11.65;;;15.70;99.00;;;;;;5035738;28;20044;-74
2022/05/02 10:23:07;;;;;;;21.17;10.68;;;15.70;99.90;;;;;;5046610;28;20873;-73
2022/05/02 10:25:43;;;;;;;21.05;11.48;;;15.70;99.90;;;;;;5055733;28;20036;-71
2022/05/02 10:28:32;;;;;;;19.38;11.23;;;15.90;99.90;;;;;;5044853;28;20071;-73
2022/05/02 10:31:09;;;;;;;17.40;11.45;;;15.90;94.20;;;;;;5045503;28;20051;-71
2022/05/02 10:33:48;;;;;;;16.55;11.30;;;15.80;96.60;;;;;;5041156;28;20037;-72
2022/05/02 10:36:15;;;;;;;18.42;11.82;;;15.70;92.70;;;;;;5028413;28;20037;-72
2022/05/02 10:39:05;;;;;;;18.63;11.85;;;15.80;99.90;;;;;;5039508;28;20056;-70
2022/05/02 10:41:45;;;;;;;17.42;11.95;;;15.90;99.90;;;;;;5043338;28;20484;-72
2022/05/02 10:44:14;;;;;;;18.35;11.27;;;15.90;98.40;;;;;;5046560;28;20411;-71
2022/05/02 10:46:43;;;;;;;23.10;11.63;;;15.90;99.90;;;;;;5043648;28;20107;-71
2022/05/02 10:50:02;;;;;;;17.10;10.80;;;16.10;99.90;;;;;;5023520;28;20329;-72
2022/05/02 10:52:38;;;;;;;20.98;11.30;;;16.20;92.70;;;;;;5031612;28;20045;-72
2022/05/02 10:55:05;;;;;;;17.80;10.70;;;16.30;96.00;;;;;;5043479;28;20049;-73
2022/05/02 10:57:38;;;;;;;18.88;10.70;;;16.30;92.00;;;;;;5044380;28;20072;-71
2022/05/02 11:00:09;;;;;;;20.13;10.95;;;16.30;97.50;;;;;;5062819;28;20044;-72
2022/05/02 11:02:50;;;;;;;16.70;10.02;;;16.40;83.40;;;;;;5046744;28;20037;-72
2022/05/02 11:05:17;;;;;;;12.65;9.13;;;16.40;80.60;;;;;;5036862;28;20568;-71
2022/05/02 11:07:58;;;;;;;14.50;9.85;;;16.40;96.20;;;;;;5052060;28;20041;-71
2022/05/02 11:10:29;;;;;;;13.65;9.25;;;16.50;66.20;;;;;;5082988;28;20076;-72
2022/05/02 11:12:59;;;;;;;17.27;10.97;;;16.50;86.00;;;;;;5051215;28;20037;-72
2022/05/02 11:15:29;;;;;;;15.20;10.32;;;16.50;87.70;;;;;;5049314;28;20060;-71
2022/05/02 11:18:04;;;;;;;17.67;10.57;;;16.70;95.20;;;;;;5048495;28;20040;-71
2022/05/02 11:20:42;;;;;;;17.77;10.93;;;16.70;97.90;;;;;;5047060;28;20090;-72
2022/05/02 11:23:31;;;;;;;18.08;10.82;;;16.70;95.60;;;;;;5048867;28;20041;-72
2022/05/02 11:26:20;;;;;;;15.20;9.93;;;16.70;92.30;;;;;;5048271;28;20067;-72
2022/05/02 11:29:25;;;;;;;17.42;10.60;;;16.60;94.70;;;;;;5049486;28;20115;-71
2022/05/02 11:31:57;;;;;;;17.75;10.30;;;16.60;95.40;;;;;;5045256;28;20124;-72
2022/05/02 11:34:27;;;;;;;16.23;10.30;;;16.50;80.60;;;;;;5049715;28;20029;-71
2022/05/02 11:36:55;;;;;;;14.93;10.25;;;16.60;99.20;;;;;;5049887;28;20052;-70
2022/05/02 11:39:39;;;;;;;15.45;9.52;;;16.70;99.90;;;;;;5050634;28;20037;-71
2022/05/02 11:42:15;;;;;;;16.05;9.95;;;16.90;98.70;;;;;;5067663;28;20116;-72
2022/05/02 11:45:12;;;;;;;13.73;9.38;;;17.00;96.90;;;;;;5051644;28;20037;-73
2022/05/02 11:48:07;;;;;;;14.90;9.27;;;17.20;93.80;;;;;;5067005;28;20049;-72
2022/05/02 11:50:46;;;;;;;11.57;8.52;;;17.40;97.00;;;;;;5050874;28;20110;-71
2022/05/02 11:53:14;;;;;;;15.00;9.05;;;17.60;93.30;;;;;;5050648;28;20037;-72
2022/05/02 11:55:42;;;;;;;14.65;8.93;;;17.50;90.70;;;;;;5050768;28;20052;-75
2022/05/02 11:58:25;;;;;;;12.57;7.78;;;17.60;87.60;;;;;;5051108;28;20082;-77
2022/05/02 12:00:57;;;;;;;14.25;9.30;;;17.60;67.70;;;;;;5044695;28;20055;-75
2022/05/02 12:03:25;;;;;;;13.63;9.20;;;17.50;66.10;;;;;;5051280;28;20049;-74
2022/05/02 12:05:55;;;;;;;11.30;8.50;;;17.40;60.50;;;;;;5047824;28;20036;-74
2022/05/02 12:08:27;;;;;;;14.02;7.97;;;17.30;71.30;;;;;;5053583;28;20294;-74
2022/05/02 12:11:07;;;;;;;14.75;8.15;;;17.30;59.30;;;;;;5049678;28;20060;-73
2022/05/02 12:13:38;;;;;;;10.88;6.50;;;17.20;59.70;;;;;;5048367;28;20049;-75
2022/05/02 12:16:08;;;;;;;10.27;6.00;;;17.30;65.90;;;;;;5041947;28;20037;-75
2022/05/02 12:18:50;;;;;;;10.10;6.60;;;17.40;60.00;;;;;;5046060;28;20135;-72
2022/05/02 12:21:19;;;;;;;;;;;17.40;56.50;;;;;;5047358;28;20091;-73
2022/05/02 12:23:45;;;;;;;13.10;7.35;;;17.50;62.70;;;;;;5044783;28;19924;-74
2022/05/02 12:26:20;;;;;;;11.10;7.60;;;17.50;58.90;;;;;;5049524;28;20176;-75
2022/05/02 12:28:48;;;;;;;11.93;7.93;;;17.50;58.40;;;;;;5047380;28;20048;-74
2022/05/02 12:31:19;;;;;;;11.32;8.05;;;17.50;58.40;;;;;;5046400;28;20041;-75
2022/05/02 12:33:50;;;;;;;13.02;7.90;;;17.50;55.90;;;;;;5047352;28;20083;-73
2022/05/02 12:36:20;;;;;;;9.90;6.88;;;17.50;56.40;;;;;;5042231;28;20037;-74
2022/05/02 12:38:54;;;;;;;11.98;7.20;;;17.60;57.90;;;;;;5048948;28;20048;-74
2022/05/02 12:41:28;;;;;;;9.40;6.45;;;17.60;57.40;;;;;;5049861;28;20048;-74
2022/05/02 12:43:58;;;;;;;13.18;7.53;;;17.70;58.10;;;;;;5048365;28;20048;-76
2022/05/02 12:46:33;;;;;;;11.95;6.70;;;17.70;53.50;;;;;;5048771;28;20037;-73
2022/05/02 12:49:03;;;;;;;14.43;7.53;;;17.60;55.50;;;;;;5047626;28;20048;-73
2022/05/02 12:51:31;;;;;;;11.00;7.20;;;17.70;58.40;;;;;;5047357;28;20063;-73
2022/05/02 12:54:26;;;;;;;12.57;7.68;;;17.90;62.10;;;;;;5044999;28;20050;-72
2022/05/02 13:02:45;;;;;;;13.90;7.88;;;18.20;59.80;;;;;;5046499;28;20080;-73
2022/05/02 13:05:15;;;;;;;13.07;9.27;;;18.20;61.90;;;;;;5049718;28;20048;-75
2022/05/02 13:07:46;;;;;;;14.88;8.23;;;18.30;58.60;;;;;;5046333;28;20500;-74
2022/05/02 13:10:26;;;;;;;14.23;8.27;;;18.00;58.60;;;;;;5046037;28;20072;-74
2022/05/02 13:13:13;;;;;;;15.40;8.68;;;17.70;61.60;;;;;;5044738;28;20124;-74
2022/05/02 13:15:48;;;;;;;12.52;8.05;;;17.60;58.60;;;;;;5049263;28;20040;-74
2022/05/02 13:18:19;;;;;;;12.82;8.38;;;17.50;62.70;;;;;;5031614;28;20044;-76
2022/05/02 13:21:02;;;;;;;13.10;8.05;;;17.60;63.00;;;;;;5047713;28;20044;-75
2022/05/02 13:23:39;;;;;;;16.63;8.98;;;17.80;61.30;;;;;;5045175;28;20072;-73
2022/05/02 13:26:30;;;;;;;12.60;8.57;;;18.00;61.40;;;;;;5049362;28;20041;-75
2022/05/02 13:29:13;;;;;;;13.30;8.55;;;18.10;58.70;;;;;;5047945;28;20106;-69
2022/05/02 13:32:07;;;;;;;14.57;9.00;;;18.20;62.70;;;;;;5047470;28;20043;-73
2022/05/02 13:35:11;;;;;;;13.63;8.85;;;18.30;55.50;;;;;;5048586;28;20400;-72
2022/05/02 13:37:55;;;;;;;12.30;7.10;;;18.30;61.80;;;;;;5040513;28;20036;-71
2022/05/02 13:40:21;;;;;;;11.52;7.70;;;18.60;60.00;;;;;;5061237;28;20118;-74
2022/05/02 13:43:09;;;;;;;10.23;6.97;;;18.60;55.30;;;;;;5082007;28;20037;-70
2022/05/02 13:45:47;;;;;;;11.80;7.72;;;18.50;55.70;;;;;;5044216;28;20036;-76
2022/05/02 13:48:26;;;;;;;13.38;7.70;;;18.30;56.20;;;;;;5039569;28;20488;-75